PWSweather.com
Personal Weather Stations
Station Observations
KAZSIERR7
Canyon De Flores, Sierra Vista, AZ 85650

Canyon De FloresSierra Vista, AZ 85650

Lat: 31.5, Lon: -110.26

Elevation: 4645

Station Type: LaCrosse WS-3610 & Boltek Lightning Detector

http://www.lightningring.com/weather/

High Low Average
Temperature 68.4°F20.2°C 31.0°F-0.6°C 47.3°F8.5°C
Dew Point 26.8°F-2.9°C 7.3°F-13.7°C 18.8°F-7.3°C
Winds 6.0 mph 9.7 kmh Calm Calm 1.0 mph SSW1.6 kmh SSW
Wind Gusts 12.4 mph20.0 kmh -- 3.0 mph4.8 kmh
Humidity 67% 11% 40%
Pressure 30.10 in1019.3 mb 29.95 in1014.2 mb -
Precipitation 0.00 in0.0 mm - -
Hour Temp Dew Point Humidity Winds Wind Gusts Pressure Precip Precip Rate Daily Precip Total
12:00 AM 33.7°F0.9°C 22.9°F-5.1°C 64% Calm Calm -- 30.09 in1019.0 mb 0.00 in0.0 mm 0.00 in/hr0.0 mm/hr 0.00 in0.0 mm
12:10 AM 33.6°F0.9°C 23.2°F-4.9°C 65% Calm Calm -- 30.09 in1019.0 mb 0.00 in0.0 mm 0.00 in/hr0.0 mm/hr 0.00 in0.0 mm
12:21 AM 33.0°F0.6°C 22.9°F-5.1°C 66% Calm Calm -- 30.09 in1019.0 mb 0.00 in0.0 mm 0.00 in/hr0.0 mm/hr 0.00 in0.0 mm
12:31 AM 33.4°F0.8°C 23.0°F-5.0°C 65% Calm Calm -- 30.09 in1019.0 mb 0.00 in0.0 mm 0.00 in/hr0.0 mm/hr 0.00 in0.0 mm
12:42 AM 33.4°F0.8°C 23.0°F-5.0°C 65% Calm Calm -- 30.09 in1019.0 mb 0.00 in0.0 mm 0.00 in/hr0.0 mm/hr 0.00 in0.0 mm
12:52 AM 33.4°F0.8°C 23.0°F-5.0°C 65% Calm Calm -- 30.09 in1019.0 mb 0.00 in0.0 mm 0.00 in/hr0.0 mm/hr 0.00 in0.0 mm
01:03 AM 33.4°F0.8°C 23.7°F-4.6°C 67% Calm Calm -- 30.09 in1019.0 mb 0.00 in0.0 mm 0.00 in/hr0.0 mm/hr 0.00 in0.0 mm
01:13 AM 33.2°F0.7°C 23.5°F-4.7°C 67% Calm Calm -- 30.10 in1019.3 mb 0.00 in0.0 mm 0.00 in/hr0.0 mm/hr 0.00 in0.0 mm
01:23 AM 33.2°F0.7°C 23.1°F-4.9°C 66% Calm Calm -- 30.09 in1019.0 mb 0.00 in0.0 mm 0.00 in/hr0.0 mm/hr 0.00 in0.0 mm
01:34 AM 33.0°F0.6°C 22.9°F-5.1°C 66% Calm Calm -- 30.09 in1019.0 mb 0.00 in0.0 mm 0.00 in/hr0.0 mm/hr 0.00 in0.0 mm
01:44 AM 33.0°F0.6°C 22.9°F-5.1°C 66% Calm Calm -- 30.09 in1019.0 mb 0.00 in0.0 mm 0.00 in/hr0.0 mm/hr 0.00 in0.0 mm
01:55 AM 32.8°F0.4°C 22.8°F-5.1°C 66% Calm Calm -- 30.09 in1019.0 mb 0.00 in0.0 mm 0.00 in/hr0.0 mm/hr 0.00 in0.0 mm
02:05 AM 32.8°F0.4°C 22.8°F-5.1°C 66% Calm Calm -- 30.09 in1019.0 mb 0.00 in0.0 mm 0.00 in/hr0.0 mm/hr 0.00 in0.0 mm
02:16 AM 33.2°F0.7°C 22.4°F-5.3°C 64% Calm Calm -- 30.09 in1019.0 mb 0.00 in0.0 mm 0.00 in/hr0.0 mm/hr 0.00 in0.0 mm
02:26 AM 33.0°F0.6°C 22.6°F-5.2°C 65% Calm Calm -- 30.08 in1018.6 mb 0.00 in0.0 mm 0.00 in/hr0.0 mm/hr 0.00 in0.0 mm
02:37 AM 33.4°F0.8°C 22.6°F-5.2°C 64% Calm Calm -- 30.08 in1018.6 mb 0.00 in0.0 mm 0.00 in/hr0.0 mm/hr 0.00 in0.0 mm
02:48 AM 33.0°F0.6°C 22.2°F-5.4°C 64% Calm Calm -- 30.08 in1018.6 mb 0.00 in0.0 mm 0.00 in/hr0.0 mm/hr 0.00 in0.0 mm
02:58 AM 33.4°F0.8°C 22.2°F-5.4°C 63% Calm Calm -- 30.07 in1018.3 mb 0.00 in0.0 mm 0.00 in/hr0.0 mm/hr 0.00 in0.0 mm
03:08 AM 33.4°F0.8°C 22.6°F-5.2°C 64% Calm Calm -- 30.07 in1018.3 mb 0.00 in0.0 mm 0.00 in/hr0.0 mm/hr 0.00 in0.0 mm
03:19 AM 33.0°F0.6°C 22.6°F-5.2°C 65% Calm Calm -- 30.08 in1018.6 mb 0.00 in0.0 mm 0.00 in/hr0.0 mm/hr 0.00 in0.0 mm
03:29 AM 33.0°F0.6°C 22.2°F-5.4°C 64% Calm Calm -- 30.07 in1018.3 mb 0.00 in0.0 mm 0.00 in/hr0.0 mm/hr 0.00 in0.0 mm
03:40 AM 33.0°F0.6°C 22.2°F-5.4°C 64% Calm Calm -- 30.07 in1018.3 mb 0.00 in0.0 mm 0.00 in/hr0.0 mm/hr 0.00 in0.0 mm
03:50 AM 32.7°F0.4°C 22.3°F-5.4°C 65% Calm Calm -- 30.06 in1017.9 mb 0.00 in0.0 mm 0.00 in/hr0.0 mm/hr 0.00 in0.0 mm
04:01 AM 32.5°F0.3°C 22.1°F-5.5°C 65% Calm Calm -- 30.06 in1017.9 mb 0.00 in0.0 mm 0.00 in/hr0.0 mm/hr 0.00 in0.0 mm
04:11 AM 32.5°F0.3°C 22.1°F-5.5°C 65% Calm Calm -- 30.06 in1017.9 mb 0.00 in0.0 mm 0.00 in/hr0.0 mm/hr 0.00 in0.0 mm
04:22 AM 31.9°F-0.1°C 21.9°F-5.6°C 66% Calm Calm -- 30.06 in1017.9 mb 0.00 in0.0 mm 0.00 in/hr0.0 mm/hr 0.00 in0.0 mm
04:32 AM 32.1°F0.1°C 21.7°F-5.7°C 65% Calm Calm -- 30.06 in1017.9 mb 0.00 in0.0 mm 0.00 in/hr0.0 mm/hr 0.00 in0.0 mm
04:43 AM 31.9°F-0.1°C 21.5°F-5.8°C 65% Calm Calm -- 30.06 in1017.9 mb 0.00 in0.0 mm 0.00 in/hr0.0 mm/hr 0.00 in0.0 mm
04:53 AM 31.9°F-0.1°C 21.5°F-5.8°C 65% Calm Calm -- 30.06 in1017.9 mb 0.00 in0.0 mm 0.00 in/hr0.0 mm/hr 0.00 in0.0 mm
05:04 AM 31.6°F-0.2°C 21.6°F-5.8°C 66% Calm Calm -- 30.06 in1017.9 mb 0.00 in0.0 mm 0.00 in/hr0.0 mm/hr 0.00 in0.0 mm
05:15 AM 31.4°F-0.3°C 21.4°F-5.9°C 66% Calm Calm -- 30.06 in1017.9 mb 0.00 in0.0 mm 0.00 in/hr0.0 mm/hr 0.00 in0.0 mm
05:25 AM 31.2°F-0.4°C 21.6°F-5.8°C 67% Calm Calm -- 30.06 in1017.9 mb 0.00 in0.0 mm 0.00 in/hr0.0 mm/hr 0.00 in0.0 mm
05:36 AM 31.6°F-0.2°C 21.6°F-5.8°C 66% Calm Calm -- 30.07 in1018.3 mb 0.00 in0.0 mm 0.00 in/hr0.0 mm/hr 0.00 in0.0 mm
05:46 AM 31.4°F-0.3°C 21.4°F-5.9°C 66% Calm Calm -- 30.07 in1018.3 mb 0.00 in0.0 mm 0.00 in/hr0.0 mm/hr 0.00 in0.0 mm
05:57 AM 31.0°F-0.6°C 21.0°F-6.1°C 66% Calm Calm -- 30.07 in1018.3 mb 0.00 in0.0 mm 0.00 in/hr0.0 mm/hr 0.00 in0.0 mm
06:07 AM 31.0°F-0.6°C 21.0°F-6.1°C 66% Calm Calm -- 30.07 in1018.3 mb 0.00 in0.0 mm 0.00 in/hr0.0 mm/hr 0.00 in0.0 mm
06:18 AM 31.0°F-0.6°C 21.4°F-5.9°C 67% Calm Calm -- 30.07 in1018.3 mb 0.00 in0.0 mm 0.00 in/hr0.0 mm/hr 0.00 in0.0 mm
06:28 AM 31.0°F-0.6°C 21.4°F-5.9°C 67% Calm Calm -- 30.07 in1018.3 mb 0.00 in0.0 mm 0.00 in/hr0.0 mm/hr 0.00 in0.0 mm
06:39 AM 31.9°F-0.1°C 21.5°F-5.8°C 65% Calm Calm -- 30.08 in1018.6 mb 0.00 in0.0 mm 0.00 in/hr0.0 mm/hr 0.00 in0.0 mm
06:49 AM 32.5°F0.3°C 21.4°F-5.9°C 63% Calm Calm -- 30.07 in1018.3 mb 0.00 in0.0 mm 0.00 in/hr0.0 mm/hr 0.00 in0.0 mm
07:00 AM 37.5°F3.1°C 23.7°F-4.6°C 57% Calm Calm -- 30.07 in1018.3 mb 0.00 in0.0 mm 0.00 in/hr0.0 mm/hr 0.00 in0.0 mm
07:10 AM 41.3°F5.2°C 24.5°F-4.2°C 51% Calm Calm -- 30.07 in1018.3 mb 0.00 in0.0 mm 0.00 in/hr0.0 mm/hr 0.00 in0.0 mm
07:21 AM 43.4°F6.3°C 23.9°F-4.5°C 46% Calm Calm -- 30.07 in1018.3 mb 0.00 in0.0 mm 0.00 in/hr0.0 mm/hr 0.00 in0.0 mm
07:31 AM 46.5°F8.1°C 25.1°F-3.8°C 43% Calm Calm -- 30.07 in1018.3 mb 0.00 in0.0 mm 0.00 in/hr0.0 mm/hr 0.00 in0.0 mm
07:42 AM 51.8°F11.0°C 26.8°F-2.9°C 38% Calm Calm -- 30.08 in1018.6 mb 0.00 in0.0 mm 0.00 in/hr0.0 mm/hr 0.00 in0.0 mm
07:52 AM 50.1°F10.1°C 22.6°F-5.2°C 34% Calm Calm -- 30.08 in1018.6 mb 0.00 in0.0 mm 0.00 in/hr0.0 mm/hr 0.00 in0.0 mm
08:03 AM 47.9°F8.8°C 22.0°F-5.6°C 36% Calm Calm 5.8 mph9.3 kmh 30.07 in1018.3 mb 0.00 in0.0 mm 0.00 in/hr0.0 mm/hr 0.00 in0.0 mm
08:13 AM 47.0°F8.3°C 21.2°F-6.0°C 36% 6.0 mph NNW9.7 kmh NNW 8.0 mph12.9 kmh 30.08 in1018.6 mb 0.00 in0.0 mm 0.00 in/hr0.0 mm/hr 0.00 in0.0 mm
08:24 AM 49.4°F9.7°C 21.9°F-5.6°C 34% Calm Calm 8.0 mph12.9 kmh 30.08 in1018.6 mb 0.00 in0.0 mm 0.00 in/hr0.0 mm/hr 0.00 in0.0 mm
08:34 AM 50.3°F10.2°C 22.0°F-5.6°C 33% 1.7 mph NNW2.7 kmh NNW 2.2 mph3.5 kmh 30.08 in1018.6 mb 0.00 in0.0 mm 0.00 in/hr0.0 mm/hr 0.00 in0.0 mm
08:45 AM 51.0°F10.6°C 21.2°F-6.0°C 31% 0.6 mph ENE1.0 kmh ENE 0.8 mph1.3 kmh 30.08 in1018.6 mb 0.00 in0.0 mm 0.00 in/hr0.0 mm/hr 0.00 in0.0 mm
08:55 AM 52.2°F11.2°C 21.4°F-5.9°C 30% 3.3 mph NE5.3 kmh NE 4.4 mph7.1 kmh 30.08 in1018.6 mb 0.00 in0.0 mm 0.00 in/hr0.0 mm/hr 0.00 in0.0 mm
09:06 AM 52.9°F11.6°C 22.1°F-5.5°C 30% 2.6 mph NNW4.2 kmh NNW 4.4 mph7.1 kmh 30.07 in1018.3 mb 0.00 in0.0 mm 0.00 in/hr0.0 mm/hr 0.00 in0.0 mm
09:16 AM 53.1°F11.7°C 21.4°F-5.9°C 29% 0.9 mph 1.4 kmh 1.2 mph1.9 kmh 30.08 in1018.6 mb 0.00 in0.0 mm 0.00 in/hr0.0 mm/hr 0.00 in0.0 mm
09:27 AM 54.0°F12.2°C 21.4°F-5.9°C 28% 3.0 mph ENE4.8 kmh ENE 4.0 mph6.4 kmh 30.08 in1018.6 mb 0.00 in0.0 mm 0.00 in/hr0.0 mm/hr 0.00 in0.0 mm
09:37 AM 54.1°F12.3°C 20.6°F-6.3°C 27% 1.7 mph ENE2.7 kmh ENE 4.0 mph6.4 kmh 30.08 in1018.6 mb 0.00 in0.0 mm 0.00 in/hr0.0 mm/hr 0.00 in0.0 mm
09:48 AM 55.0°F12.8°C 20.6°F-6.3°C 26% Calm Calm 2.2 mph3.5 kmh 30.07 in1018.3 mb 0.00 in0.0 mm 0.00 in/hr0.0 mm/hr 0.00 in0.0 mm
09:59 AM 54.9°F12.7°C 20.4°F-6.4°C 26% Calm Calm 3.4 mph5.5 kmh 30.07 in1018.3 mb 0.00 in0.0 mm 0.00 in/hr0.0 mm/hr 0.00 in0.0 mm
10:09 AM 56.0°F13.3°C 20.5°F-6.4°C 25% 0.9 mph NE1.4 kmh NE 1.2 mph1.9 kmh 30.07 in1018.3 mb 0.00 in0.0 mm 0.00 in/hr0.0 mm/hr 0.00 in0.0 mm
10:20 AM 57.8°F14.3°C 21.1°F-6.1°C 24% Calm Calm 2.2 mph3.5 kmh 30.07 in1018.3 mb 0.00 in0.0 mm 0.00 in/hr0.0 mm/hr 0.00 in0.0 mm
10:30 AM 55.0°F12.8°C 19.7°F-6.8°C 25% 0.9 mph SE1.4 kmh SE 4.8 mph7.7 kmh 30.06 in1017.9 mb 0.00 in0.0 mm 0.00 in/hr0.0 mm/hr 0.00 in0.0 mm
10:41 AM 57.4°F14.1°C 18.8°F-7.3°C 22% 3.3 mph NNE5.3 kmh NNE 4.4 mph7.1 kmh 30.06 in1017.9 mb 0.00 in0.0 mm 0.00 in/hr0.0 mm/hr 0.00 in0.0 mm
10:52 AM 59.7°F15.4°C 18.5°F-7.5°C 20% Calm Calm -- 30.06 in1017.9 mb 0.00 in0.0 mm 0.00 in/hr0.0 mm/hr 0.00 in0.0 mm
11:02 AM 57.2°F14.0°C 16.4°F-8.7°C 20% 0.9 mph NW1.4 kmh NW 2.2 mph3.5 kmh 30.06 in1017.9 mb 0.00 in0.0 mm 0.00 in/hr0.0 mm/hr 0.00 in0.0 mm
11:13 AM 57.0°F13.9°C 15.1°F-9.4°C 19% 3.2 mph NE5.1 kmh NE 7.0 mph11.3 kmh 30.06 in1017.9 mb 0.00 in0.0 mm 0.00 in/hr0.0 mm/hr 0.00 in0.0 mm
11:23 AM 56.7°F13.7°C 16.0°F-8.9°C 20% 2.6 mph NE4.2 kmh NE 7.0 mph11.3 kmh 30.06 in1017.9 mb 0.00 in0.0 mm 0.00 in/hr0.0 mm/hr 0.00 in0.0 mm
11:34 AM 57.2°F14.0°C 16.4°F-8.7°C 20% 1.7 mph NE2.7 kmh NE 3.4 mph5.5 kmh 30.05 in1017.6 mb 0.00 in0.0 mm 0.00 in/hr0.0 mm/hr 0.00 in0.0 mm
11:44 AM 58.7°F14.8°C 13.9°F-10.1°C 17% 3.3 mph NE5.3 kmh NE 8.4 mph13.5 kmh 30.05 in1017.6 mb 0.00 in0.0 mm 0.00 in/hr0.0 mm/hr 0.00 in0.0 mm
11:55 AM 59.6°F15.3°C 13.2°F-10.4°C 16% 0.3 mph SE0.5 kmh SE 2.2 mph3.5 kmh 30.05 in1017.6 mb 0.00 in0.0 mm 0.00 in/hr0.0 mm/hr 0.00 in0.0 mm
12:05 PM 58.6°F14.8°C 13.9°F-10.1°C 17% 2.3 mph NW3.7 kmh NW 3.0 mph4.8 kmh 30.04 in1017.3 mb 0.00 in0.0 mm 0.00 in/hr0.0 mm/hr 0.00 in0.0 mm
12:16 PM 61.5°F16.4°C 13.3°F-10.4°C 15% 1.9 mph NE3.1 kmh NE 3.4 mph5.5 kmh 30.04 in1017.3 mb 0.00 in0.0 mm 0.00 in/hr0.0 mm/hr 0.00 in0.0 mm
12:26 PM 60.3°F15.7°C 12.4°F-10.9°C 15% Calm Calm 6.6 mph10.6 kmh 30.04 in1017.3 mb 0.00 in0.0 mm 0.00 in/hr0.0 mm/hr 0.00 in0.0 mm
12:37 PM 62.1°F16.7°C 10.5°F-11.9°C 13% 4.9 mph NW7.9 kmh NW 6.6 mph10.6 kmh 30.03 in1016.9 mb 0.00 in0.0 mm 0.00 in/hr0.0 mm/hr 0.00 in0.0 mm
12:47 PM 61.6°F16.4°C 13.4°F-10.3°C 15% Calm Calm -- 30.01 in1016.3 mb 0.00 in0.0 mm 0.00 in/hr0.0 mm/hr 0.00 in0.0 mm
12:58 PM 62.9°F17.2°C 7.3°F-13.7°C 11% 4.4 mph NE7.1 kmh NE 6.6 mph10.6 kmh 30.01 in1016.3 mb 0.00 in0.0 mm 0.00 in/hr0.0 mm/hr 0.00 in0.0 mm
01:08 PM 60.5°F15.8°C 9.2°F-12.7°C 13% 1.3 mph NNE2.1 kmh NNE 8.4 mph13.5 kmh 30.01 in1016.3 mb 0.00 in0.0 mm 0.00 in/hr0.0 mm/hr 0.00 in0.0 mm
01:20 PM 63.0°F17.2°C 9.4°F-12.6°C 12% 5.3 mph NW8.5 kmh NW 7.0 mph11.3 kmh 30.01 in1016.3 mb 0.00 in0.0 mm 0.00 in/hr0.0 mm/hr 0.00 in0.0 mm
01:31 PM 65.4°F18.6°C 9.3°F-12.6°C 11% Calm Calm -- 30.00 in1015.9 mb 0.00 in0.0 mm 0.00 in/hr0.0 mm/hr 0.00 in0.0 mm
01:41 PM 63.9°F17.7°C 8.1°F-13.3°C 11% Calm Calm 7.6 mph12.2 kmh 30.00 in1015.9 mb 0.00 in0.0 mm 0.00 in/hr0.0 mm/hr 0.00 in0.0 mm
01:52 PM 63.1°F17.3°C 7.5°F-13.6°C 11% 1.0 mph NE1.6 kmh NE 6.2 mph10.0 kmh 29.99 in1015.6 mb 0.00 in0.0 mm 0.00 in/hr0.0 mm/hr 0.00 in0.0 mm
02:02 PM 62.8°F17.1°C 9.3°F-12.6°C 12% 0.6 mph ESE1.0 kmh ESE 7.0 mph11.3 kmh 29.99 in1015.6 mb 0.00 in0.0 mm 0.00 in/hr0.0 mm/hr 0.00 in0.0 mm
02:13 PM 64.9°F18.3°C 10.9°F-11.7°C 12% Calm Calm 5.8 mph9.3 kmh 29.99 in1015.6 mb 0.00 in0.0 mm 0.00 in/hr0.0 mm/hr 0.00 in0.0 mm
02:23 PM 63.2°F17.3°C 9.5°F-12.5°C 12% 1.9 mph NE3.1 kmh NE 7.0 mph11.3 kmh 29.99 in1015.6 mb 0.00 in0.0 mm 0.00 in/hr0.0 mm/hr 0.00 in0.0 mm
02:34 PM 65.3°F18.5°C 11.2°F-11.6°C 12% 4.6 mph NNE7.4 kmh NNE 6.2 mph10.0 kmh 29.98 in1015.2 mb 0.00 in0.0 mm 0.00 in/hr0.0 mm/hr 0.00 in0.0 mm
02:44 PM 64.3°F17.9°C 10.4°F-12.0°C 12% 4.4 mph NW7.1 kmh NW 8.0 mph12.9 kmh 29.98 in1015.2 mb 0.00 in0.0 mm 0.00 in/hr0.0 mm/hr 0.00 in0.0 mm
02:55 PM 67.0°F19.4°C 12.5°F-10.8°C 12% 2.3 mph NW3.7 kmh NW 5.2 mph8.4 kmh 29.98 in1015.2 mb 0.00 in0.0 mm 0.00 in/hr0.0 mm/hr 0.00 in0.0 mm
03:05 PM 66.3°F19.1°C 12.0°F-11.1°C 12% 4.9 mph ENE7.9 kmh ENE 6.6 mph10.6 kmh 29.97 in1014.9 mb 0.00 in0.0 mm 0.00 in/hr0.0 mm/hr 0.00 in0.0 mm
03:16 PM 65.0°F18.3°C 10.9°F-11.7°C 12% 4.1 mph NE6.6 kmh NE 6.6 mph10.6 kmh 29.97 in1014.9 mb 0.00 in0.0 mm 0.00 in/hr0.0 mm/hr 0.00 in0.0 mm
03:26 PM 66.7°F19.3°C 12.3°F-10.9°C 12% 0.6 mph NW1.0 kmh NW 6.6 mph10.6 kmh 29.97 in1014.9 mb 0.00 in0.0 mm 0.00 in/hr0.0 mm/hr 0.00 in0.0 mm
03:37 PM 65.7°F18.7°C 13.4°F-10.3°C 13% 3.2 mph NE5.1 kmh NE 12.4 mph20.0 kmh 29.96 in1014.6 mb 0.00 in0.0 mm 0.00 in/hr0.0 mm/hr 0.00 in0.0 mm
03:47 PM 65.5°F18.6°C 13.2°F-10.4°C 13% 4.6 mph NE7.4 kmh NE 6.2 mph10.0 kmh 29.96 in1014.6 mb 0.00 in0.0 mm 0.00 in/hr0.0 mm/hr 0.00 in0.0 mm
03:58 PM 66.5°F19.2°C 15.8°F-9.0°C 14% 6.0 mph ENE9.7 kmh ENE 9.2 mph14.8 kmh 29.96 in1014.6 mb 0.00 in0.0 mm 0.00 in/hr0.0 mm/hr 0.00 in0.0 mm
04:08 PM 67.8°F19.9°C 15.0°F-9.4°C 13% 1.2 mph NNE1.9 kmh NNE 3.4 mph5.5 kmh 29.96 in1014.6 mb 0.00 in0.0 mm 0.00 in/hr0.0 mm/hr 0.00 in0.0 mm
04:19 PM 68.4°F20.2°C 15.5°F-9.2°C 13% Calm Calm -- 29.95 in1014.2 mb 0.00 in0.0 mm 0.00 in/hr0.0 mm/hr 0.00 in0.0 mm
04:30 PM 66.8°F19.3°C 17.5°F-8.1°C 15% 1.4 mph N2.3 kmh N 9.2 mph14.8 kmh 29.95 in1014.2 mb 0.00 in0.0 mm 0.00 in/hr0.0 mm/hr 0.00 in0.0 mm
04:40 PM 67.4°F19.7°C 14.7°F-9.6°C 13% 4.4 mph NE7.1 kmh NE 7.0 mph11.3 kmh 29.96 in1014.6 mb 0.00 in0.0 mm 0.00 in/hr0.0 mm/hr 0.00 in0.0 mm
04:51 PM 66.4°F19.1°C 17.2°F-8.2°C 15% Calm Calm 7.0 mph11.3 kmh 29.95 in1014.2 mb 0.00 in0.0 mm 0.00 in/hr0.0 mm/hr 0.00 in0.0 mm
05:01 PM 67.7°F19.8°C 18.3°F-7.6°C 15% 2.3 mph NW3.7 kmh NW 5.2 mph8.4 kmh 29.96 in1014.6 mb 0.00 in0.0 mm 0.00 in/hr0.0 mm/hr 0.00 in0.0 mm
05:12 PM 66.9°F19.4°C 19.2°F-7.1°C 16% 2.9 mph NNW4.7 kmh NNW 4.4 mph7.1 kmh 29.96 in1014.6 mb 0.00 in0.0 mm 0.00 in/hr0.0 mm/hr 0.00 in0.0 mm
05:22 PM 65.3°F18.5°C 20.7°F-6.3°C 18% 8.1 mph NW13.0 kmh NW 40.2 mph64.7 kmh 29.96 in1014.6 mb 0.00 in0.0 mm 0.00 in/hr0.0 mm/hr 0.00 in0.0 mm
05:33 PM 64.8°F18.2°C 20.3°F-6.5°C 18% 4.9 mph NW7.9 kmh NW 57.2 mph92.1 kmh 29.97 in1014.9 mb 0.00 in0.0 mm 0.00 in/hr0.0 mm/hr 0.00 in0.0 mm
05:43 PM 63.6°F17.6°C 20.5°F-6.4°C 19% 8.6 mph NW13.8 kmh NW 46.0 mph74.0 kmh 29.97 in1014.9 mb 0.00 in0.0 mm 0.00 in/hr0.0 mm/hr 0.00 in0.0 mm
05:53 PM 62.2°F16.8°C 20.5°F-6.4°C 20% 6.8 mph NW10.9 kmh NW 59.8 mph96.2 kmh 29.97 in1014.9 mb 0.00 in0.0 mm 0.00 in/hr0.0 mm/hr 0.00 in0.0 mm
06:04 PM 61.5°F16.4°C 21.1°F-6.1°C 21% 2.2 mph WNW3.5 kmh WNW 48.2 mph77.6 kmh 29.98 in1015.2 mb 0.00 in0.0 mm 0.00 in/hr0.0 mm/hr 0.00 in0.0 mm
06:14 PM 59.0°F15.0°C 21.1°F-6.1°C 23% 7.8 mph NW12.6 kmh NW 53.6 mph86.3 kmh 29.98 in1015.2 mb 0.00 in0.0 mm 0.00 in/hr0.0 mm/hr 0.00 in0.0 mm
06:25 PM 58.3°F14.6°C 21.5°F-5.8°C 24% Calm Calm 30.8 mph49.6 kmh 29.98 in1015.2 mb 0.00 in0.0 mm 0.00 in/hr0.0 mm/hr 0.00 in0.0 mm
06:35 PM 57.3°F14.1°C 21.6°F-5.8°C 25% 3.6 mph NNW5.8 kmh NNW 9.8 mph15.8 kmh 29.98 in1015.2 mb 0.00 in0.0 mm 0.00 in/hr0.0 mm/hr 0.00 in0.0 mm
06:46 PM 56.6°F13.7°C 21.9°F-5.6°C 26% 1.2 mph NW1.9 kmh NW 6.2 mph10.0 kmh 29.98 in1015.2 mb 0.00 in0.0 mm 0.00 in/hr0.0 mm/hr 0.00 in0.0 mm
06:57 PM 55.9°F13.3°C 22.2°F-5.4°C 27% 0.6 mph NW1.0 kmh NW 3.4 mph5.5 kmh 29.99 in1015.6 mb 0.00 in0.0 mm 0.00 in/hr0.0 mm/hr 0.00 in0.0 mm
07:07 PM 55.3°F12.9°C 22.5°F-5.3°C 28% 1.2 mph NNW1.9 kmh NNW 4.4 mph7.1 kmh 29.99 in1015.6 mb 0.00 in0.0 mm 0.00 in/hr0.0 mm/hr 0.00 in0.0 mm
07:18 PM 54.8°F12.7°C 23.7°F-4.6°C 30% 1.9 mph NW3.1 kmh NW 9.8 mph15.8 kmh 29.99 in1015.6 mb 0.00 in0.0 mm 0.00 in/hr0.0 mm/hr 0.00 in0.0 mm
07:28 PM 54.6°F12.6°C 23.6°F-4.7°C 30% Calm Calm 4.8 mph7.7 kmh 30.00 in1015.9 mb 0.00 in0.0 mm 0.00 in/hr0.0 mm/hr 0.00 in0.0 mm
07:39 PM 54.1°F12.3°C 23.9°F-4.5°C 31% 4.6 mph NNW7.4 kmh NNW 6.2 mph10.0 kmh 30.00 in1015.9 mb 0.00 in0.0 mm 0.00 in/hr0.0 mm/hr 0.00 in0.0 mm
07:49 PM 53.5°F11.9°C 24.1°F-4.4°C 32% 1.9 mph NW3.1 kmh NW 4.0 mph6.4 kmh 30.00 in1015.9 mb 0.00 in0.0 mm 0.00 in/hr0.0 mm/hr 0.00 in0.0 mm
08:00 PM 53.7°F12.1°C 24.3°F-4.3°C 32% 2.8 mph NW4.5 kmh NW 7.0 mph11.3 kmh 30.01 in1016.3 mb 0.00 in0.0 mm 0.00 in/hr0.0 mm/hr 0.00 in0.0 mm
08:10 PM 53.2°F11.8°C 24.6°F-4.1°C 33% 3.3 mph W5.3 kmh W 5.2 mph8.4 kmh 30.01 in1016.3 mb 0.00 in0.0 mm 0.00 in/hr0.0 mm/hr 0.00 in0.0 mm
08:21 PM 52.3°F11.3°C 25.2°F-3.8°C 35% Calm Calm 3.4 mph5.5 kmh 30.01 in1016.3 mb 0.00 in0.0 mm 0.00 in/hr0.0 mm/hr 0.00 in0.0 mm
08:31 PM 49.6°F9.8°C 25.4°F-3.7°C 39% Calm Calm -- 30.02 in1016.6 mb 0.00 in0.0 mm 0.00 in/hr0.0 mm/hr 0.00 in0.0 mm
08:41 PM 48.5°F9.2°C 25.7°F-3.5°C 41% Calm Calm 1.6 mph2.6 kmh 30.02 in1016.6 mb 0.00 in0.0 mm 0.00 in/hr0.0 mm/hr 0.00 in0.0 mm
08:52 PM 48.1°F8.9°C 25.9°F-3.4°C 42% Calm Calm -- 30.02 in1016.6 mb 0.00 in0.0 mm 0.00 in/hr0.0 mm/hr 0.00 in0.0 mm
09:02 PM 47.4°F8.6°C 25.3°F-3.7°C 42% 3.0 mph WNW4.8 kmh WNW 4.0 mph6.4 kmh 30.02 in1016.6 mb 0.00 in0.0 mm 0.00 in/hr0.0 mm/hr 0.00 in0.0 mm
09:13 PM 47.1°F8.4°C 25.0°F-3.9°C 42% Calm Calm -- 30.03 in1016.9 mb 0.00 in0.0 mm 0.00 in/hr0.0 mm/hr 0.00 in0.0 mm
09:23 PM 46.9°F8.3°C 25.4°F-3.7°C 43% Calm Calm -- 30.03 in1016.9 mb 0.00 in0.0 mm 0.00 in/hr0.0 mm/hr 0.00 in0.0 mm
09:34 PM 46.3°F7.9°C 24.9°F-3.9°C 43% Calm Calm -- 30.03 in1016.9 mb 0.00 in0.0 mm 0.00 in/hr0.0 mm/hr 0.00 in0.0 mm
09:45 PM 46.3°F7.9°C 24.9°F-3.9°C 43% Calm Calm -- 30.03 in1016.9 mb 0.00 in0.0 mm 0.00 in/hr0.0 mm/hr 0.00 in0.0 mm
09:55 PM 46.0°F7.8°C 24.6°F-4.1°C 43% Calm Calm 1.6 mph2.6 kmh 30.03 in1016.9 mb 0.00 in0.0 mm 0.00 in/hr0.0 mm/hr 0.00 in0.0 mm
10:06 PM 45.6°F7.6°C 24.8°F-4.0°C 44% Calm Calm -- 30.03 in1016.9 mb 0.00 in0.0 mm 0.00 in/hr0.0 mm/hr 0.00 in0.0 mm
10:16 PM 45.4°F7.4°C 25.2°F-3.8°C 45% Calm Calm -- 30.03 in1016.9 mb 0.00 in0.0 mm 0.00 in/hr0.0 mm/hr 0.00 in0.0 mm
10:27 PM 45.4°F7.4°C 24.6°F-4.1°C 44% Calm Calm -- 30.03 in1016.9 mb 0.00 in0.0 mm 0.00 in/hr0.0 mm/hr 0.00 in0.0 mm
10:37 PM 45.6°F7.6°C 24.8°F-4.0°C 44% Calm Calm -- 30.03 in1016.9 mb 0.00 in0.0 mm 0.00 in/hr0.0 mm/hr 0.00 in0.0 mm
10:48 PM 45.6°F7.6°C 24.8°F-4.0°C 44% 0.9 mph W1.4 kmh W 1.2 mph1.9 kmh 30.03 in1016.9 mb 0.00 in0.0 mm 0.00 in/hr0.0 mm/hr 0.00 in0.0 mm
10:58 PM 44.5°F6.9°C 24.9°F-3.9°C 46% Calm Calm -- 30.03 in1016.9 mb 0.00 in0.0 mm 0.00 in/hr0.0 mm/hr 0.00 in0.0 mm
11:09 PM 44.7°F7.1°C 25.6°F-3.6°C 47% Calm Calm -- 30.03 in1016.9 mb 0.00 in0.0 mm 0.00 in/hr0.0 mm/hr 0.00 in0.0 mm
11:19 PM 43.8°F6.6°C 25.3°F-3.7°C 48% Calm Calm -- 30.03 in1016.9 mb 0.00 in0.0 mm 0.00 in/hr0.0 mm/hr 0.00 in0.0 mm
11:30 PM 43.6°F6.4°C 25.6°F-3.6°C 49% Calm Calm -- 30.03 in1016.9 mb 0.00 in0.0 mm 0.00 in/hr0.0 mm/hr 0.00 in0.0 mm
11:40 PM 43.8°F6.6°C 25.3°F-3.7°C 48% Calm Calm -- 30.02 in1016.6 mb 0.00 in0.0 mm 0.00 in/hr0.0 mm/hr 0.00 in0.0 mm
11:51 PM 43.6°F6.4°C 25.6°F-3.6°C 49% Calm Calm -- 30.02 in1016.6 mb 0.00 in0.0 mm 0.00 in/hr0.0 mm/hr 0.00 in0.0 mm